createdAt,value
2023-05-13T00:00:45.439Z,7.10
2023-05-13T00:05:48.539Z,7.50
2023-05-13T00:10:51.843Z,7.88
2023-05-13T00:15:54.741Z,6.32
2023-05-13T00:20:57.773Z,6.20
2023-05-13T00:26:01.295Z,6.00
2023-05-13T00:31:04.460Z,5.85
2023-05-13T00:36:09.876Z,4.85
2023-05-13T00:41:13.242Z,6.38
2023-05-13T00:46:16.605Z,6.50
2023-05-13T00:51:19.689Z,5.00
2023-05-13T00:56:23.276Z,6.45
2023-05-13T01:02:08.659Z,12.07
2023-05-13T01:07:42.044Z,9.73
2023-05-13T01:12:47.273Z,5.63
2023-05-13T01:18:11.621Z,7.93
2023-05-13T01:23:14.720Z,9.88
2023-05-13T01:28:17.792Z,7.78
2023-05-13T01:33:25.128Z,13.82
2023-05-13T01:38:28.605Z,4.80
2023-05-13T01:43:34.045Z,5.85
2023-05-13T01:48:40.496Z,6.35
2023-05-13T01:53:43.413Z,5.65
2023-05-13T01:58:49.183Z,5.95
2023-05-13T02:03:52.237Z,5.20
2023-05-13T02:08:55.819Z,4.00
2023-05-13T02:13:59.338Z,5.18
2023-05-13T02:19:02.263Z,4.60
2023-05-13T02:24:06.278Z,5.38
2023-05-13T02:29:09.094Z,4.55
2023-05-13T02:34:12.246Z,4.45
2023-05-13T02:39:15.407Z,3.38
2023-05-13T02:44:18.395Z,3.70
2023-05-13T02:49:22.636Z,4.30
2023-05-13T02:54:25.703Z,4.35
2023-05-13T02:59:28.689Z,2.75
2023-05-13T03:04:31.627Z,2.95
2023-05-13T03:09:35.538Z,3.90
2023-05-13T03:14:38.646Z,4.95
2023-05-13T03:19:41.706Z,4.57
2023-05-13T03:24:44.920Z,5.38
2023-05-13T03:29:48.671Z,5.20
2023-05-13T03:34:52.177Z,6.60
2023-05-13T03:39:55.895Z,4.30
2023-05-13T03:44:59.656Z,5.75
2023-05-13T03:50:02.561Z,13.35
2023-05-13T03:55:12.052Z,6.15
2023-05-13T04:00:15.707Z,5.05
2023-05-13T04:05:18.719Z,7.57
2023-05-13T04:10:22.812Z,2.92
2023-05-13T04:15:27.180Z,3.60
2023-05-13T04:20:30.126Z,4.28
2023-05-13T04:25:33.152Z,5.00
2023-05-13T04:30:36.950Z,4.43
2023-05-13T04:35:40.323Z,4.80
2023-05-13T04:40:45.003Z,7.90
2023-05-13T04:45:50.803Z,5.47
2023-05-13T04:50:54.067Z,6.63
2023-05-13T04:56:01.222Z,5.93
2023-05-13T05:01:07.488Z,4.20
2023-05-13T05:06:10.782Z,4.38
2023-05-13T05:11:13.802Z,6.18
2023-05-13T05:16:17.051Z,3.55
2023-05-13T05:21:20.813Z,5.55
2023-05-13T05:26:23.809Z,3.67
2023-05-13T05:31:28.235Z,3.88
2023-05-13T05:36:33.123Z,4.95
2023-05-13T05:41:38.441Z,7.25
2023-05-13T05:46:42.486Z,4.00
2023-05-13T05:51:45.459Z,4.90
2023-05-13T05:56:48.519Z,3.80
2023-05-13T06:01:51.959Z,5.75
2023-05-13T06:06:54.997Z,5.90
2023-05-13T06:11:58.412Z,5.15
2023-05-13T06:17:01.391Z,4.93
2023-05-13T06:22:04.550Z,5.75
2023-05-13T06:27:07.561Z,4.75
2023-05-13T06:32:10.937Z,5.88
2023-05-13T06:37:14.178Z,6.63
2023-05-13T06:42:17.677Z,5.60
2023-05-13T06:47:24.154Z,4.10
2023-05-13T06:52:27.350Z,4.40
2023-05-13T06:57:41.833Z,5.65
2023-05-13T07:02:46.204Z,4.60
2023-05-13T07:07:53.958Z,5.20
2023-05-13T07:12:56.928Z,4.50
2023-05-13T07:17:59.891Z,4.80
2023-05-13T07:23:02.890Z,5.07
2023-05-13T07:28:05.799Z,5.72
2023-05-13T07:33:08.838Z,3.70
2023-05-13T07:38:12.536Z,3.55
2023-05-13T07:43:18.300Z,4.32
2023-05-13T07:48:21.182Z,2.65
2023-05-13T07:53:24.242Z,5.45
2023-05-13T07:58:27.216Z,5.55
2023-05-13T08:03:30.181Z,3.90
2023-05-13T08:08:33.659Z,3.55
2023-05-13T08:13:36.592Z,2.97
2023-05-13T08:18:39.550Z,4.90
2023-05-13T08:23:45.896Z,6.00
2023-05-13T08:28:50.539Z,3.33
2023-05-13T08:33:55.676Z,3.15
2023-05-13T08:38:58.534Z,3.30
2023-05-13T08:44:05.512Z,3.20
2023-05-13T08:49:08.559Z,3.80
2023-05-13T08:54:11.868Z,4.47
2023-05-13T08:59:14.696Z,4.85
2023-05-13T09:04:18.361Z,2.60
2023-05-13T09:09:21.603Z,4.68
2023-05-13T09:14:30.547Z,5.25
2023-05-13T09:19:33.601Z,4.07
2023-05-13T09:24:36.606Z,3.10
2023-05-13T09:29:39.436Z,7.70
2023-05-13T09:34:48.770Z,3.80
2023-05-13T09:39:53.277Z,7.13
2023-05-13T09:44:59.481Z,4.77
2023-05-13T09:50:03.792Z,3.20
2023-05-13T09:55:09.885Z,4.85
2023-05-13T10:00:18.135Z,2.78
2023-05-13T10:05:32.856Z,2.60
2023-05-13T10:10:36.367Z,3.55
2023-05-13T10:15:51.712Z,7.45
2023-05-13T10:20:55.354Z,3.95
2023-05-13T10:25:59.737Z,3.67
2023-05-13T10:31:03.222Z,4.53
2023-05-13T10:36:42.976Z,3.38
2023-05-13T10:41:58.306Z,3.53
2023-05-13T10:52:14.756Z,3.65
2023-05-13T10:57:29.196Z,4.05
2023-05-13T11:02:32.860Z,6.77
2023-05-13T11:07:42.598Z,6.53
2023-05-13T11:13:09.426Z,3.95
2023-05-13T11:18:14.780Z,4.88
2023-05-13T11:29:02.037Z,5.30
2023-05-13T11:34:12.389Z,5.10
2023-05-13T11:39:21.817Z,2.95
2023-05-13T11:44:26.272Z,3.22
2023-05-13T11:49:46.794Z,4.30
2023-05-13T11:54:51.764Z,4.07
2023-05-13T11:59:57.279Z,4.20
2023-05-13T12:05:07.301Z,3.00
2023-05-13T12:10:10.491Z,4.18
2023-05-13T12:15:18.076Z,6.60
2023-05-13T12:20:22.541Z,2.28
2023-05-13T12:25:51.574Z,3.22
2023-05-13T12:31:06.201Z,5.78
2023-05-13T12:36:34.016Z,4.73
2023-05-13T12:41:39.070Z,4.88
2023-05-13T12:46:52.982Z,4.18
2023-05-13T12:51:57.134Z,3.38
2023-05-13T12:57:01.569Z,7.00
2023-05-13T13:02:04.672Z,3.10
2023-05-13T13:07:12.377Z,4.03
2023-05-13T13:12:15.402Z,4.32
2023-05-13T13:17:18.539Z,3.17
2023-05-13T13:22:21.386Z,6.65
2023-05-13T13:27:24.401Z,6.10
2023-05-13T13:32:27.568Z,6.03
2023-05-13T13:37:31.114Z,5.07
2023-05-13T13:42:44.251Z,5.32
2023-05-13T13:47:47.910Z,9.43
2023-05-13T13:52:53.941Z,6.75
2023-05-13T13:57:56.941Z,7.47
2023-05-13T14:03:00.510Z,5.00
2023-05-13T14:08:03.478Z,5.80
2023-05-13T14:13:06.817Z,6.63
2023-05-13T14:18:09.808Z,11.25
2023-05-13T14:23:12.804Z,9.55
2023-05-13T14:28:15.840Z,12.85
2023-05-13T14:33:18.897Z,12.27
2023-05-13T14:38:21.756Z,12.05
2023-05-13T14:43:25.324Z,12.43
2023-05-13T14:48:28.186Z,8.85
2023-05-13T14:53:31.100Z,15.02
2023-05-13T14:58:34.026Z,12.75
2023-05-13T15:03:37.062Z,11.73
2023-05-13T15:08:40.275Z,10.77
2023-05-13T15:13:43.183Z,10.30
2023-05-13T15:18:46.377Z,12.70
2023-05-13T15:23:49.497Z,7.53
2023-05-13T15:28:52.347Z,11.32
2023-05-13T15:33:55.225Z,6.22
2023-05-13T15:38:58.192Z,6.10
2023-05-13T15:44:01.152Z,7.05
2023-05-13T15:49:04.071Z,11.60
2023-05-13T15:54:06.964Z,9.45
2023-05-13T15:59:09.919Z,8.98
2023-05-13T16:04:12.886Z,6.03
2023-05-13T16:09:15.973Z,9.40
2023-05-13T16:14:19.628Z,5.28
2023-05-13T16:19:22.858Z,4.13
2023-05-13T16:24:25.817Z,10.90
2023-05-13T16:29:28.693Z,10.32
2023-05-13T16:34:31.557Z,17.83
2023-05-13T16:39:34.577Z,20.25
2023-05-13T16:44:37.779Z,14.93
2023-05-13T16:49:41.265Z,25.27
2023-05-13T16:54:45.225Z,18.73
2023-05-13T16:59:48.082Z,23.17
2023-05-13T17:04:51.620Z,23.60
2023-05-13T17:09:54.462Z,19.15
2023-05-13T17:14:57.336Z,21.10
2023-05-13T17:20:00.334Z,15.63
2023-05-13T17:25:03.628Z,15.73
2023-05-13T17:30:07.406Z,14.27
2023-05-13T17:35:10.585Z,20.23
2023-05-13T17:40:13.631Z,17.50
2023-05-13T17:45:16.560Z,22.85
2023-05-13T17:50:19.550Z,18.30
2023-05-13T17:55:22.407Z,19.67
2023-05-13T18:00:26.317Z,18.42
2023-05-13T18:05:29.333Z,16.17
2023-05-13T18:10:32.259Z,12.18
2023-05-13T18:15:35.206Z,15.15
2023-05-13T18:20:40.392Z,14.45
2023-05-13T18:30:58.226Z,12.20
2023-05-13T18:36:01.202Z,8.63
2023-05-13T18:41:05.088Z,11.70
2023-05-13T18:46:08.144Z,11.57
2023-05-13T18:51:11.863Z,11.98
2023-05-13T18:56:14.618Z,10.40
2023-05-13T19:01:17.629Z,12.07
2023-05-13T19:06:20.776Z,10.88
2023-05-13T19:11:23.796Z,11.20
2023-05-13T19:16:27.601Z,9.88
2023-05-13T19:21:30.466Z,13.00
2023-05-13T19:26:33.367Z,6.03
2023-05-13T19:31:36.259Z,11.07
2023-05-13T19:36:39.437Z,8.63
2023-05-13T19:41:42.708Z,8.43
2023-05-13T19:46:45.744Z,10.07
2023-05-13T19:51:48.780Z,8.15
2023-05-13T19:56:51.666Z,8.80
2023-05-13T20:01:54.550Z,6.47
2023-05-13T20:06:57.534Z,8.80
2023-05-13T20:12:00.645Z,7.68
2023-05-13T20:17:04.048Z,6.57
2023-05-13T20:22:06.890Z,6.78
2023-05-13T20:27:09.875Z,6.10
2023-05-13T20:32:12.939Z,7.90
2023-05-13T20:37:17.258Z,6.88
2023-05-13T20:42:23.107Z,6.70
2023-05-13T20:47:25.980Z,5.80
2023-05-13T20:52:28.908Z,7.85
2023-05-13T20:57:31.811Z,8.43
2023-05-13T21:02:34.721Z,6.00
2023-05-13T21:07:37.562Z,7.10
2023-05-13T21:12:40.485Z,6.57
2023-05-13T21:17:43.499Z,6.40
2023-05-13T21:22:46.814Z,7.88
2023-05-13T21:27:50.641Z,7.47
2023-05-13T21:32:53.625Z,9.60
2023-05-13T21:38:08.253Z,8.90
2023-05-13T21:43:14.895Z,9.70
2023-05-13T21:48:18.094Z,8.65
2023-05-13T21:53:21.023Z,10.23
2023-05-13T21:58:23.912Z,9.95
2023-05-13T22:03:26.967Z,12.10
2023-05-13T22:08:31.416Z,10.45
2023-05-13T22:13:34.327Z,10.15
2023-05-13T22:18:37.374Z,9.85
2023-05-13T22:23:40.337Z,10.73
2023-05-13T22:28:43.252Z,9.07
2023-05-13T22:33:46.141Z,8.27
2023-05-13T22:38:49.255Z,9.23
2023-05-13T22:43:53.955Z,7.43
2023-05-13T22:48:56.853Z,8.43
2023-05-13T22:54:00.101Z,7.95
2023-05-13T22:59:02.997Z,6.55
2023-05-13T23:04:06.061Z,7.78
2023-05-13T23:09:09.255Z,8.68
2023-05-13T23:14:12.237Z,9.68
2023-05-13T23:19:15.204Z,7.05
2023-05-13T23:24:18.168Z,6.75
2023-05-13T23:29:21.172Z,7.70
2023-05-13T23:34:24.043Z,8.10
2023-05-13T23:39:27.012Z,11.32
2023-05-13T23:44:29.889Z,7.63
2023-05-13T23:49:32.793Z,9.73
2023-05-13T23:54:35.596Z,10.70
2023-05-13T23:59:38.926Z,8.52
